sensor_id;sensor_type;location;lat;lon;timestamp;temperature;humidity
16174;DHT22;14031;50.158;8.626;2023-02-04T00:00:11;9.50;99.90
16174;DHT22;14031;50.158;8.626;2023-02-04T00:02:39;9.70;99.90
16174;DHT22;14031;50.158;8.626;2023-02-04T00:05:07;9.60;99.90
16174;DHT22;14031;50.158;8.626;2023-02-04T00:07:34;9.70;99.90
16174;DHT22;14031;50.158;8.626;2023-02-04T00:10:01;9.70;99.90
16174;DHT22;14031;50.158;8.626;2023-02-04T00:12:28;9.70;99.90
16174;DHT22;14031;50.158;8.626;2023-02-04T00:14:56;9.70;99.90
16174;DHT22;14031;50.158;8.626;2023-02-04T00:17:23;9.70;99.90
16174;DHT22;14031;50.158;8.626;2023-02-04T00:19:51;9.60;99.90
16174;DHT22;14031;50.158;8.626;2023-02-04T00:22:18;9.60;99.90
16174;DHT22;14031;50.158;8.626;2023-02-04T00:24:45;9.60;99.90
16174;DHT22;14031;50.158;8.626;2023-02-04T00:27:14;9.70;99.90
16174;DHT22;14031;50.158;8.626;2023-02-04T00:29:41;9.70;99.90
16174;DHT22;14031;50.158;8.626;2023-02-04T00:32:09;9.60;99.90
16174;DHT22;14031;50.158;8.626;2023-02-04T00:34:36;9.60;99.90
16174;DHT22;14031;50.158;8.626;2023-02-04T00:37:03;9.60;99.90
16174;DHT22;14031;50.158;8.626;2023-02-04T00:39:29;9.60;99.90
16174;DHT22;14031;50.158;8.626;2023-02-04T00:41:56;9.60;99.90
16174;DHT22;14031;50.158;8.626;2023-02-04T00:44:23;9.40;99.90
16174;DHT22;14031;50.158;8.626;2023-02-04T00:46:50;9.50;99.90
16174;DHT22;14031;50.158;8.626;2023-02-04T00:49:18;9.50;99.90
16174;DHT22;14031;50.158;8.626;2023-02-04T00:51:44;9.50;99.90
16174;DHT22;14031;50.158;8.626;2023-02-04T00:54:12;9.50;99.90
16174;DHT22;14031;50.158;8.626;2023-02-04T00:56:40;9.50;99.90
16174;DHT22;14031;50.158;8.626;2023-02-04T00:59:07;9.50;99.90
16174;DHT22;14031;50.158;8.626;2023-02-04T01:01:34;9.50;99.90
16174;DHT22;14031;50.158;8.626;2023-02-04T01:04:01;9.40;99.90
16174;DHT22;14031;50.158;8.626;2023-02-04T01:06:29;9.30;99.90
16174;DHT22;14031;50.158;8.626;2023-02-04T01:08:56;9.40;99.90
16174;DHT22;14031;50.158;8.626;2023-02-04T01:11:22;9.40;99.90
16174;DHT22;14031;50.158;8.626;2023-02-04T01:13:49;9.40;99.90
16174;DHT22;14031;50.158;8.626;2023-02-04T01:16:16;9.50;99.90
16174;DHT22;14031;50.158;8.626;2023-02-04T01:18:43;9.30;99.90
16174;DHT22;14031;50.158;8.626;2023-02-04T01:21:10;9.60;99.90
16174;DHT22;14031;50.158;8.626;2023-02-04T01:23:38;9.40;99.90
16174;DHT22;14031;50.158;8.626;2023-02-04T01:26:05;9.40;99.90
16174;DHT22;14031;50.158;8.626;2023-02-04T01:28:31;9.40;99.90
16174;DHT22;14031;50.158;8.626;2023-02-04T01:30:58;9.40;99.90
16174;DHT22;14031;50.158;8.626;2023-02-04T01:33:25;9.50;99.90
16174;DHT22;14031;50.158;8.626;2023-02-04T01:35:52;9.60;99.90
16174;DHT22;14031;50.158;8.626;2023-02-04T01:38:19;9.50;99.90
16174;DHT22;14031;50.158;8.626;2023-02-04T01:40:47;9.50;99.90
16174;DHT22;14031;50.158;8.626;2023-02-04T01:43:14;9.50;99.90
16174;DHT22;14031;50.158;8.626;2023-02-04T01:45:42;9.40;99.90
16174;DHT22;14031;50.158;8.626;2023-02-04T01:48:09;9.40;99.90
16174;DHT22;14031;50.158;8.626;2023-02-04T01:50:37;9.40;99.90
16174;DHT22;14031;50.158;8.626;2023-02-04T01:53:04;9.40;99.90
16174;DHT22;14031;50.158;8.626;2023-02-04T01:55:31;9.40;99.90
16174;DHT22;14031;50.158;8.626;2023-02-04T01:57:59;9.40;99.90
16174;DHT22;14031;50.158;8.626;2023-02-04T02:00:29;9.50;99.90
16174;DHT22;14031;50.158;8.626;2023-02-04T02:02:56;9.40;99.90
16174;DHT22;14031;50.158;8.626;2023-02-04T02:05:25;9.50;99.90
16174;DHT22;14031;50.158;8.626;2023-02-04T02:07:55;9.50;99.90
16174;DHT22;14031;50.158;8.626;2023-02-04T02:10:23;9.60;99.90
16174;DHT22;14031;50.158;8.626;2023-02-04T02:12:50;9.40;99.90
16174;DHT22;14031;50.158;8.626;2023-02-04T02:15:19;9.40;99.90
16174;DHT22;14031;50.158;8.626;2023-02-04T02:17:46;9.40;99.90
16174;DHT22;14031;50.158;8.626;2023-02-04T02:20:16;9.50;99.90
16174;DHT22;14031;50.158;8.626;2023-02-04T02:22:51;9.40;99.90
16174;DHT22;14031;50.158;8.626;2023-02-04T02:25:19;9.60;99.90
16174;DHT22;14031;50.158;8.626;2023-02-04T02:27:47;9.50;99.90
16174;DHT22;14031;50.158;8.626;2023-02-04T02:30:15;9.30;99.90
16174;DHT22;14031;50.158;8.626;2023-02-04T02:32:44;9.40;99.90
16174;DHT22;14031;50.158;8.626;2023-02-04T02:35:11;9.40;99.90
16174;DHT22;14031;50.158;8.626;2023-02-04T02:37:39;9.40;99.90
16174;DHT22;14031;50.158;8.626;2023-02-04T02:40:07;9.30;99.90
16174;DHT22;14031;50.158;8.626;2023-02-04T02:42:36;9.30;99.90
16174;DHT22;14031;50.158;8.626;2023-02-04T02:45:06;9.20;99.90
16174;DHT22;14031;50.158;8.626;2023-02-04T02:47:33;9.30;99.90
16174;DHT22;14031;50.158;8.626;2023-02-04T02:50:00;9.40;99.90
16174;DHT22;14031;50.158;8.626;2023-02-04T02:52:27;9.40;99.90
16174;DHT22;14031;50.158;8.626;2023-02-04T02:54:54;9.20;99.90
16174;DHT22;14031;50.158;8.626;2023-02-04T02:57:22;9.20;99.90
16174;DHT22;14031;50.158;8.626;2023-02-04T02:59:50;9.20;99.90
16174;DHT22;14031;50.158;8.626;2023-02-04T03:02:19;9.20;99.90
16174;DHT22;14031;50.158;8.626;2023-02-04T03:04:51;9.20;99.90
16174;DHT22;14031;50.158;8.626;2023-02-04T03:07:19;9.20;99.90
16174;DHT22;14031;50.158;8.626;2023-02-04T03:09:47;9.20;99.90
16174;DHT22;14031;50.158;8.626;2023-02-04T03:12:14;9.20;99.90
16174;DHT22;14031;50.158;8.626;2023-02-04T03:14:40;9.20;99.90
16174;DHT22;14031;50.158;8.626;2023-02-04T03:17:09;9.20;99.90
16174;DHT22;14031;50.158;8.626;2023-02-04T03:19:37;9.10;99.90
16174;DHT22;14031;50.158;8.626;2023-02-04T03:22:04;9.20;99.90
16174;DHT22;14031;50.158;8.626;2023-02-04T03:24:31;9.20;99.90
16174;DHT22;14031;50.158;8.626;2023-02-04T03:26:59;9.10;99.90
16174;DHT22;14031;50.158;8.626;2023-02-04T03:29:26;9.10;99.90
16174;DHT22;14031;50.158;8.626;2023-02-04T03:31:52;9.10;99.90
16174;DHT22;14031;50.158;8.626;2023-02-04T03:34:22;9.10;99.90
16174;DHT22;14031;50.158;8.626;2023-02-04T03:36:49;9.10;99.90
16174;DHT22;14031;50.158;8.626;2023-02-04T03:39:15;9.00;99.90
16174;DHT22;14031;50.158;8.626;2023-02-04T03:41:42;9.10;99.90
16174;DHT22;14031;50.158;8.626;2023-02-04T03:44:09;9.10;99.90
16174;DHT22;14031;50.158;8.626;2023-02-04T03:46:36;9.10;99.90
16174;DHT22;14031;50.158;8.626;2023-02-04T03:49:03;9.10;99.90
16174;DHT22;14031;50.158;8.626;2023-02-04T03:51:31;9.10;99.90
16174;DHT22;14031;50.158;8.626;2023-02-04T03:53:57;9.10;99.90
16174;DHT22;14031;50.158;8.626;2023-02-04T03:56:24;9.10;99.90
16174;DHT22;14031;50.158;8.626;2023-02-04T03:58:51;8.90;99.90
16174;DHT22;14031;50.158;8.626;2023-02-04T04:01:18;9.00;99.90
16174;DHT22;14031;50.158;8.626;2023-02-04T04:03:44;9.00;99.90
16174;DHT22;14031;50.158;8.626;2023-02-04T04:06:11;9.00;99.90
16174;DHT22;14031;50.158;8.626;2023-02-04T04:08:39;9.00;99.90
16174;DHT22;14031;50.158;8.626;2023-02-04T04:11:06;9.00;99.90
16174;DHT22;14031;50.158;8.626;2023-02-04T04:13:33;9.00;99.90
16174;DHT22;14031;50.158;8.626;2023-02-04T04:15:59;9.00;99.90
16174;DHT22;14031;50.158;8.626;2023-02-04T04:18:27;9.00;99.90
16174;DHT22;14031;50.158;8.626;2023-02-04T04:20:54;9.00;99.90
16174;DHT22;14031;50.158;8.626;2023-02-04T04:23:21;8.90;99.90
16174;DHT22;14031;50.158;8.626;2023-02-04T04:25:49;8.90;99.90
16174;DHT22;14031;50.158;8.626;2023-02-04T04:28:16;9.00;99.90
16174;DHT22;14031;50.158;8.626;2023-02-04T04:30:43;9.00;99.90
16174;DHT22;14031;50.158;8.626;2023-02-04T04:33:09;9.00;99.90
16174;DHT22;14031;50.158;8.626;2023-02-04T04:35:36;8.90;99.90
16174;DHT22;14031;50.158;8.626;2023-02-04T04:38:03;9.00;99.90
16174;DHT22;14031;50.158;8.626;2023-02-04T04:40:30;8.70;99.90
16174;DHT22;14031;50.158;8.626;2023-02-04T04:42:58;8.80;99.90
16174;DHT22;14031;50.158;8.626;2023-02-04T04:45:25;8.80;99.90
16174;DHT22;14031;50.158;8.626;2023-02-04T04:47:51;8.80;99.90
16174;DHT22;14031;50.158;8.626;2023-02-04T04:50:18;8.80;99.90
16174;DHT22;14031;50.158;8.626;2023-02-04T04:52:45;8.80;99.90
16174;DHT22;14031;50.158;8.626;2023-02-04T04:55:12;8.80;99.90
16174;DHT22;14031;50.158;8.626;2023-02-04T04:57:39;8.80;99.90
16174;DHT22;14031;50.158;8.626;2023-02-04T05:00:14;8.80;99.90
16174;DHT22;14031;50.158;8.626;2023-02-04T05:02:41;8.80;99.90
16174;DHT22;14031;50.158;8.626;2023-02-04T05:05:08;8.80;99.90
16174;DHT22;14031;50.158;8.626;2023-02-04T05:07:35;8.80;99.90
16174;DHT22;14031;50.158;8.626;2023-02-04T05:10:02;8.80;99.90
16174;DHT22;14031;50.158;8.626;2023-02-04T05:12:29;8.90;99.90
16174;DHT22;14031;50.158;8.626;2023-02-04T05:14:56;8.70;99.90
16174;DHT22;14031;50.158;8.626;2023-02-04T05:17:24;8.70;99.90
16174;DHT22;14031;50.158;8.626;2023-02-04T05:19:50;8.70;99.90
16174;DHT22;14031;50.158;8.626;2023-02-04T05:22:17;8.70;99.90
16174;DHT22;14031;50.158;8.626;2023-02-04T05:24:44;8.70;99.90
16174;DHT22;14031;50.158;8.626;2023-02-04T05:27:13;8.70;99.90
16174;DHT22;14031;50.158;8.626;2023-02-04T05:29:40;8.60;99.90
16174;DHT22;14031;50.158;8.626;2023-02-04T05:32:07;8.60;99.90
16174;DHT22;14031;50.158;8.626;2023-02-04T05:34:35;8.60;99.90
16174;DHT22;14031;50.158;8.626;2023-02-04T05:37:02;8.60;99.90
16174;DHT22;14031;50.158;8.626;2023-02-04T05:39:29;8.60;99.90
16174;DHT22;14031;50.158;8.626;2023-02-04T05:41:56;8.50;99.90
16174;DHT22;14031;50.158;8.626;2023-02-04T05:44:22;8.70;99.90
16174;DHT22;14031;50.158;8.626;2023-02-04T05:46:49;8.50;99.90
16174;DHT22;14031;50.158;8.626;2023-02-04T05:49:16;8.50;99.90
16174;DHT22;14031;50.158;8.626;2023-02-04T05:51:44;8.70;99.90
16174;DHT22;14031;50.158;8.626;2023-02-04T05:54:11;8.70;99.90
16174;DHT22;14031;50.158;8.626;2023-02-04T05:56:43;8.70;99.90
16174;DHT22;14031;50.158;8.626;2023-02-04T05:59:10;8.70;99.90
16174;DHT22;14031;50.158;8.626;2023-02-04T06:01:37;8.70;99.90
16174;DHT22;14031;50.158;8.626;2023-02-04T06:04:04;8.70;99.90
16174;DHT22;14031;50.158;8.626;2023-02-04T06:06:31;8.60;99.90
16174;DHT22;14031;50.158;8.626;2023-02-04T06:08:59;8.70;99.90
16174;DHT22;14031;50.158;8.626;2023-02-04T06:11:25;8.80;99.90
16174;DHT22;14031;50.158;8.626;2023-02-04T06:13:52;8.90;99.90
16174;DHT22;14031;50.158;8.626;2023-02-04T06:16:19;8.70;99.90
16174;DHT22;14031;50.158;8.626;2023-02-04T06:18:46;8.70;99.90
16174;DHT22;14031;50.158;8.626;2023-02-04T06:21:12;8.70;99.90
16174;DHT22;14031;50.158;8.626;2023-02-04T06:23:39;8.70;99.90
16174;DHT22;14031;50.158;8.626;2023-02-04T06:26:07;8.70;99.90
16174;DHT22;14031;50.158;8.626;2023-02-04T06:28:34;8.80;99.90
16174;DHT22;14031;50.158;8.626;2023-02-04T06:31:01;8.80;99.90
16174;DHT22;14031;50.158;8.626;2023-02-04T06:33:28;8.80;99.90
16174;DHT22;14031;50.158;8.626;2023-02-04T06:35:55;8.80;99.90
16174;DHT22;14031;50.158;8.626;2023-02-04T06:38:21;8.80;99.90
16174;DHT22;14031;50.158;8.626;2023-02-04T06:40:48;8.80;99.90
16174;DHT22;14031;50.158;8.626;2023-02-04T06:43:19;8.80;99.90
16174;DHT22;14031;50.158;8.626;2023-02-04T06:45:46;8.80;99.90
16174;DHT22;14031;50.158;8.626;2023-02-04T06:48:15;8.90;99.90
16174;DHT22;14031;50.158;8.626;2023-02-04T06:50:42;8.70;99.90
16174;DHT22;14031;50.158;8.626;2023-02-04T06:53:09;8.80;99.90
16174;DHT22;14031;50.158;8.626;2023-02-04T06:55:35;8.70;99.90
16174;DHT22;14031;50.158;8.626;2023-02-04T06:58:02;8.70;99.90
16174;DHT22;14031;50.158;8.626;2023-02-04T07:00:30;8.70;99.90
16174;DHT22;14031;50.158;8.626;2023-02-04T07:02:58;8.80;99.90
16174;DHT22;14031;50.158;8.626;2023-02-04T07:05:25;8.70;99.90
16174;DHT22;14031;50.158;8.626;2023-02-04T07:07:51;8.70;99.90
16174;DHT22;14031;50.158;8.626;2023-02-04T07:10:18;8.80;99.90
16174;DHT22;14031;50.158;8.626;2023-02-04T07:12:46;8.70;99.90
16174;DHT22;14031;50.158;8.626;2023-02-04T07:15:13;8.60;99.90
16174;DHT22;14031;50.158;8.626;2023-02-04T07:17:41;8.70;99.90
16174;DHT22;14031;50.158;8.626;2023-02-04T07:20:09;8.50;99.90
16174;DHT22;14031;50.158;8.626;2023-02-04T07:22:36;8.50;99.90
16174;DHT22;14031;50.158;8.626;2023-02-04T07:25:03;8.60;99.90
16174;DHT22;14031;50.158;8.626;2023-02-04T07:27:30;8.50;99.90
16174;DHT22;14031;50.158;8.626;2023-02-04T07:29:56;8.50;99.90
16174;DHT22;14031;50.158;8.626;2023-02-04T07:32:23;8.50;99.90
16174;DHT22;14031;50.158;8.626;2023-02-04T07:34:53;8.50;99.90
16174;DHT22;14031;50.158;8.626;2023-02-04T07:37:20;8.50;99.90
16174;DHT22;14031;50.158;8.626;2023-02-04T07:39:48;8.70;99.90
16174;DHT22;14031;50.158;8.626;2023-02-04T07:42:14;8.60;99.90
16174;DHT22;14031;50.158;8.626;2023-02-04T07:44:41;8.50;99.90
16174;DHT22;14031;50.158;8.626;2023-02-04T07:47:08;8.70;99.90
16174;DHT22;14031;50.158;8.626;2023-02-04T07:49:35;8.70;99.90
16174;DHT22;14031;50.158;8.626;2023-02-04T07:52:03;8.60;99.90
16174;DHT22;14031;50.158;8.626;2023-02-04T07:54:30;8.60;99.90
16174;DHT22;14031;50.158;8.626;2023-02-04T07:56:57;8.70;99.90
16174;DHT22;14031;50.158;8.626;2023-02-04T07:59:24;8.70;99.90
16174;DHT22;14031;50.158;8.626;2023-02-04T08:01:51;8.80;99.90
16174;DHT22;14031;50.158;8.626;2023-02-04T08:04:17;8.80;99.90
16174;DHT22;14031;50.158;8.626;2023-02-04T08:06:44;8.70;99.90
16174;DHT22;14031;50.158;8.626;2023-02-04T08:09:12;8.80;99.90
16174;DHT22;14031;50.158;8.626;2023-02-04T08:11:39;8.80;99.90
16174;DHT22;14031;50.158;8.626;2023-02-04T08:14:06;8.80;99.90
16174;DHT22;14031;50.158;8.626;2023-02-04T08:16:32;9.00;99.90
16174;DHT22;14031;50.158;8.626;2023-02-04T08:18:59;8.90;99.90
16174;DHT22;14031;50.158;8.626;2023-02-04T08:21:26;8.90;99.90
16174;DHT22;14031;50.158;8.626;2023-02-04T08:23:53;9.00;99.90
16174;DHT22;14031;50.158;8.626;2023-02-04T08:26:21;9.30;99.90
16174;DHT22;14031;50.158;8.626;2023-02-04T08:28:47;9.30;99.90
16174;DHT22;14031;50.158;8.626;2023-02-04T08:31:14;9.20;99.90
16174;DHT22;14031;50.158;8.626;2023-02-04T08:33:41;9.30;99.90
16174;DHT22;14031;50.158;8.626;2023-02-04T08:36:08;9.20;99.90
16174;DHT22;14031;50.158;8.626;2023-02-04T08:38:35;9.30;99.90
16174;DHT22;14031;50.158;8.626;2023-02-04T08:41:01;9.30;99.90
16174;DHT22;14031;50.158;8.626;2023-02-04T08:43:31;9.40;99.90
16174;DHT22;14031;50.158;8.626;2023-02-04T08:45:58;9.50;99.90
16174;DHT22;14031;50.158;8.626;2023-02-04T08:48:25;9.40;99.90
16174;DHT22;14031;50.158;8.626;2023-02-04T08:50:51;9.50;99.90
16174;DHT22;14031;50.158;8.626;2023-02-04T08:53:18;9.50;99.90
16174;DHT22;14031;50.158;8.626;2023-02-04T08:55:45;9.60;99.90
16174;DHT22;14031;50.158;8.626;2023-02-04T08:58:11;9.60;99.90
16174;DHT22;14031;50.158;8.626;2023-02-04T09:00:40;9.70;99.90
16174;DHT22;14031;50.158;8.626;2023-02-04T09:03:07;9.80;99.90
16174;DHT22;14031;50.158;8.626;2023-02-04T09:05:34;9.90;99.90
16174;DHT22;14031;50.158;8.626;2023-02-04T09:08:01;10.10;99.90
16174;DHT22;14031;50.158;8.626;2023-02-04T09:10:27;10.00;99.90
16174;DHT22;14031;50.158;8.626;2023-02-04T09:12:54;10.00;99.90
16174;DHT22;14031;50.158;8.626;2023-02-04T09:15:22;10.00;99.90
16174;DHT22;14031;50.158;8.626;2023-02-04T09:17:50;10.00;99.90
16174;DHT22;14031;50.158;8.626;2023-02-04T09:20:18;10.10;99.90
16174;DHT22;14031;50.158;8.626;2023-02-04T09:22:45;10.10;99.90
16174;DHT22;14031;50.158;8.626;2023-02-04T09:25:12;10.20;99.90
16174;DHT22;14031;50.158;8.626;2023-02-04T09:27:39;10.30;99.90
16174;DHT22;14031;50.158;8.626;2023-02-04T09:30:07;10.40;99.90
16174;DHT22;14031;50.158;8.626;2023-02-04T09:32:34;10.40;99.90
16174;DHT22;14031;50.158;8.626;2023-02-04T09:35:02;10.40;99.90
16174;DHT22;14031;50.158;8.626;2023-02-04T09:37:29;10.50;99.90
16174;DHT22;14031;50.158;8.626;2023-02-04T09:39:56;10.50;99.90
16174;DHT22;14031;50.158;8.626;2023-02-04T09:42:24;10.60;99.90
16174;DHT22;14031;50.158;8.626;2023-02-04T09:44:51;10.60;99.90
16174;DHT22;14031;50.158;8.626;2023-02-04T09:47:21;10.50;99.90
16174;DHT22;14031;50.158;8.626;2023-02-04T09:49:48;10.50;99.90
16174;DHT22;14031;50.158;8.626;2023-02-04T09:52:17;10.40;99.90
16174;DHT22;14031;50.158;8.626;2023-02-04T09:54:49;10.40;99.90
16174;DHT22;14031;50.158;8.626;2023-02-04T09:57:19;10.40;99.90
16174;DHT22;14031;50.158;8.626;2023-02-04T09:59:46;10.40;99.90
16174;DHT22;14031;50.158;8.626;2023-02-04T10:02:20;10.40;99.90
16174;DHT22;14031;50.158;8.626;2023-02-04T10:04:48;10.40;99.90
16174;DHT22;14031;50.158;8.626;2023-02-04T10:07:18;10.30;99.90
16174;DHT22;14031;50.158;8.626;2023-02-04T10:09:50;10.30;99.90
16174;DHT22;14031;50.158;8.626;2023-02-04T10:12:17;10.30;99.90
16174;DHT22;14031;50.158;8.626;2023-02-04T10:14:44;10.30;99.90
16174;DHT22;14031;50.158;8.626;2023-02-04T10:17:12;10.30;99.90
16174;DHT22;14031;50.158;8.626;2023-02-04T10:19:42;10.30;99.90
16174;DHT22;14031;50.158;8.626;2023-02-04T10:22:15;10.30;99.90
16174;DHT22;14031;50.158;8.626;2023-02-04T10:24:46;10.30;99.90
16174;DHT22;14031;50.158;8.626;2023-02-04T10:27:13;10.30;99.90
16174;DHT22;14031;50.158;8.626;2023-02-04T10:29:41;10.20;99.90
16174;DHT22;14031;50.158;8.626;2023-02-04T10:32:26;10.30;99.90
16174;DHT22;14031;50.158;8.626;2023-02-04T10:34:56;10.30;99.90
16174;DHT22;14031;50.158;8.626;2023-02-04T10:37:24;10.40;99.90
16174;DHT22;14031;50.158;8.626;2023-02-04T10:39:52;10.40;99.90
16174;DHT22;14031;50.158;8.626;2023-02-04T10:42:21;10.40;99.90
16174;DHT22;14031;50.158;8.626;2023-02-04T10:44:48;10.40;99.90
16174;DHT22;14031;50.158;8.626;2023-02-04T10:47:18;10.40;99.90
16174;DHT22;14031;50.158;8.626;2023-02-04T10:49:52;10.40;99.90
16174;DHT22;14031;50.158;8.626;2023-02-04T10:52:22;10.30;99.90
16174;DHT22;14031;50.158;8.626;2023-02-04T10:54:52;10.30;99.90
16174;DHT22;14031;50.158;8.626;2023-02-04T10:57:22;10.40;99.90
16174;DHT22;14031;50.158;8.626;2023-02-04T10:59:51;10.40;99.90
16174;DHT22;14031;50.158;8.626;2023-02-04T11:02:40;10.50;99.90
16174;DHT22;14031;50.158;8.626;2023-02-04T11:05:12;10.50;99.90
16174;DHT22;14031;50.158;8.626;2023-02-04T11:07:39;10.60;99.90
16174;DHT22;14031;50.158;8.626;2023-02-04T11:10:11;10.70;99.90
16174;DHT22;14031;50.158;8.626;2023-02-04T11:12:40;10.70;99.90
16174;DHT22;14031;50.158;8.626;2023-02-04T11:15:37;10.70;99.90
16174;DHT22;14031;50.158;8.626;2023-02-04T11:18:06;10.70;99.90
16174;DHT22;14031;50.158;8.626;2023-02-04T11:20:33;10.70;99.90
16174;DHT22;14031;50.158;8.626;2023-02-04T11:23:30;10.70;99.90
16174;DHT22;14031;50.158;8.626;2023-02-04T11:26:06;10.60;99.90
16174;DHT22;14031;50.158;8.626;2023-02-04T11:28:49;10.50;99.90
16174;DHT22;14031;50.158;8.626;2023-02-04T11:31:40;10.40;99.90
16174;DHT22;14031;50.158;8.626;2023-02-04T11:34:23;10.30;99.90
16174;DHT22;14031;50.158;8.626;2023-02-04T11:36:55;10.40;99.90
16174;DHT22;14031;50.158;8.626;2023-02-04T11:39:27;10.60;99.90
16174;DHT22;14031;50.158;8.626;2023-02-04T11:41:59;10.50;99.90
16174;DHT22;14031;50.158;8.626;2023-02-04T11:44:26;10.60;99.90
16174;DHT22;14031;50.158;8.626;2023-02-04T11:46:54;10.60;99.90
16174;DHT22;14031;50.158;8.626;2023-02-04T11:49:22;10.60;99.90
16174;DHT22;14031;50.158;8.626;2023-02-04T11:51:50;10.60;99.90
16174;DHT22;14031;50.158;8.626;2023-02-04T11:54:18;10.70;99.90
16174;DHT22;14031;50.158;8.626;2023-02-04T11:56:46;10.60;99.90
16174;DHT22;14031;50.158;8.626;2023-02-04T11:59:14;10.60;99.90
16174;DHT22;14031;50.158;8.626;2023-02-04T12:01:44;10.70;99.90
16174;DHT22;14031;50.158;8.626;2023-02-04T12:04:22;10.70;99.90
16174;DHT22;14031;50.158;8.626;2023-02-04T12:06:58;10.70;99.90
16174;DHT22;14031;50.158;8.626;2023-02-04T12:09:26;10.70;99.90
16174;DHT22;14031;50.158;8.626;2023-02-04T12:11:55;10.60;99.90
16174;DHT22;14031;50.158;8.626;2023-02-04T12:14:37;10.50;99.90
16174;DHT22;14031;50.158;8.626;2023-02-04T12:17:14;10.60;99.90
16174;DHT22;14031;50.158;8.626;2023-02-04T12:19:41;10.60;99.90
16174;DHT22;14031;50.158;8.626;2023-02-04T12:22:08;10.60;99.90
16174;DHT22;14031;50.158;8.626;2023-02-04T12:24:35;10.70;99.90
16174;DHT22;14031;50.158;8.626;2023-02-04T12:27:02;10.70;99.90
16174;DHT22;14031;50.158;8.626;2023-02-04T12:29:30;10.80;99.90
16174;DHT22;14031;50.158;8.626;2023-02-04T12:31:57;10.80;99.90
16174;DHT22;14031;50.158;8.626;2023-02-04T12:34:24;10.70;99.90
16174;DHT22;14031;50.158;8.626;2023-02-04T12:36:51;10.70;99.90
16174;DHT22;14031;50.158;8.626;2023-02-04T12:39:19;10.70;99.90
16174;DHT22;14031;50.158;8.626;2023-02-04T12:41:46;10.80;99.90
16174;DHT22;14031;50.158;8.626;2023-02-04T12:44:12;10.90;99.90
16174;DHT22;14031;50.158;8.626;2023-02-04T12:46:43;11.00;99.90
16174;DHT22;14031;50.158;8.626;2023-02-04T12:49:10;11.10;99.90
16174;DHT22;14031;50.158;8.626;2023-02-04T12:51:37;11.10;99.90
16174;DHT22;14031;50.158;8.626;2023-02-04T12:54:03;11.20;99.90
16174;DHT22;14031;50.158;8.626;2023-02-04T12:56:30;11.30;99.90
16174;DHT22;14031;50.158;8.626;2023-02-04T12:58:57;11.30;99.90
16174;DHT22;14031;50.158;8.626;2023-02-04T13:01:24;11.30;99.90
16174;DHT22;14031;50.158;8.626;2023-02-04T13:03:52;11.30;99.90
16174;DHT22;14031;50.158;8.626;2023-02-04T13:06:19;11.30;99.90
16174;DHT22;14031;50.158;8.626;2023-02-04T13:08:46;11.30;99.90
16174;DHT22;14031;50.158;8.626;2023-02-04T13:11:14;11.30;99.90
16174;DHT22;14031;50.158;8.626;2023-02-04T13:13:40;11.40;99.90
16174;DHT22;14031;50.158;8.626;2023-02-04T13:16:07;11.40;99.90
16174;DHT22;14031;50.158;8.626;2023-02-04T13:18:34;11.50;99.90
16174;DHT22;14031;50.158;8.626;2023-02-04T13:21:03;11.40;99.90
16174;DHT22;14031;50.158;8.626;2023-02-04T13:23:30;11.40;99.90
16174;DHT22;14031;50.158;8.626;2023-02-04T13:25:56;11.40;99.90
16174;DHT22;14031;50.158;8.626;2023-02-04T13:28:23;11.30;99.90
16174;DHT22;14031;50.158;8.626;2023-02-04T13:30:50;11.50;99.90
16174;DHT22;14031;50.158;8.626;2023-02-04T13:33:17;11.50;99.90
16174;DHT22;14031;50.158;8.626;2023-02-04T13:35:44;11.60;99.90
16174;DHT22;14031;50.158;8.626;2023-02-04T13:38:12;11.80;99.90
16174;DHT22;14031;50.158;8.626;2023-02-04T13:40:38;12.00;99.90
16174;DHT22;14031;50.158;8.626;2023-02-04T13:43:05;12.10;99.90
16174;DHT22;14031;50.158;8.626;2023-02-04T13:45:32;12.20;99.90
16174;DHT22;14031;50.158;8.626;2023-02-04T13:47:59;12.20;99.90
16174;DHT22;14031;50.158;8.626;2023-02-04T13:50:26;12.20;99.90
16174;DHT22;14031;50.158;8.626;2023-02-04T13:52:53;12.10;99.90
16174;DHT22;14031;50.158;8.626;2023-02-04T13:55:21;12.00;99.90
16174;DHT22;14031;50.158;8.626;2023-02-04T13:57:48;12.10;99.90
16174;DHT22;14031;50.158;8.626;2023-02-04T14:00:15;12.00;99.90
16174;DHT22;14031;50.158;8.626;2023-02-04T14:02:43;12.00;99.90
16174;DHT22;14031;50.158;8.626;2023-02-04T14:05:10;12.00;99.90
16174;DHT22;14031;50.158;8.626;2023-02-04T14:07:36;12.00;99.90
16174;DHT22;14031;50.158;8.626;2023-02-04T14:10:04;12.00;99.90
16174;DHT22;14031;50.158;8.626;2023-02-04T14:12:32;12.00;99.90
16174;DHT22;14031;50.158;8.626;2023-02-04T14:14:59;12.00;99.90
16174;DHT22;14031;50.158;8.626;2023-02-04T14:17:26;12.10;99.90
16174;DHT22;14031;50.158;8.626;2023-02-04T14:19:52;12.20;99.90
16174;DHT22;14031;50.158;8.626;2023-02-04T14:22:19;12.20;99.90
16174;DHT22;14031;50.158;8.626;2023-02-04T14:24:49;12.40;99.90
16174;DHT22;14031;50.158;8.626;2023-02-04T14:27:16;12.40;99.90
16174;DHT22;14031;50.158;8.626;2023-02-04T14:29:44;12.40;99.90
16174;DHT22;14031;50.158;8.626;2023-02-04T14:32:10;12.20;99.90
16174;DHT22;14031;50.158;8.626;2023-02-04T14:34:37;12.20;99.90
16174;DHT22;14031;50.158;8.626;2023-02-04T14:37:04;12.20;99.90
16174;DHT22;14031;50.158;8.626;2023-02-04T14:39:31;12.10;99.90
16174;DHT22;14031;50.158;8.626;2023-02-04T14:41:57;12.00;99.90
16174;DHT22;14031;50.158;8.626;2023-02-04T14:44:25;12.10;99.90
16174;DHT22;14031;50.158;8.626;2023-02-04T14:46:53;12.10;99.90
16174;DHT22;14031;50.158;8.626;2023-02-04T14:49:20;12.10;99.90
16174;DHT22;14031;50.158;8.626;2023-02-04T14:51:46;12.10;99.90
16174;DHT22;14031;50.158;8.626;2023-02-04T14:54:13;12.00;99.90
16174;DHT22;14031;50.158;8.626;2023-02-04T14:56:40;11.90;99.90
16174;DHT22;14031;50.158;8.626;2023-02-04T14:59:09;11.90;99.90
16174;DHT22;14031;50.158;8.626;2023-02-04T15:01:35;11.90;99.90
16174;DHT22;14031;50.158;8.626;2023-02-04T15:04:04;11.90;99.90
16174;DHT22;14031;50.158;8.626;2023-02-04T15:06:31;11.90;99.90
16174;DHT22;14031;50.158;8.626;2023-02-04T15:08:57;11.70;99.90
16174;DHT22;14031;50.158;8.626;2023-02-04T15:11:24;11.70;99.90
16174;DHT22;14031;50.158;8.626;2023-02-04T15:13:51;11.50;99.90
16174;DHT22;14031;50.158;8.626;2023-02-04T15:16:18;11.70;99.90
16174;DHT22;14031;50.158;8.626;2023-02-04T15:18:44;11.50;99.90
16174;DHT22;14031;50.158;8.626;2023-02-04T15:21:13;11.40;99.90
16174;DHT22;14031;50.158;8.626;2023-02-04T15:23:41;11.40;99.90
16174;DHT22;14031;50.158;8.626;2023-02-04T15:26:09;11.30;99.90
16174;DHT22;14031;50.158;8.626;2023-02-04T15:28:36;11.30;99.90
16174;DHT22;14031;50.158;8.626;2023-02-04T15:31:03;11.30;99.90
16174;DHT22;14031;50.158;8.626;2023-02-04T15:33:30;11.20;99.90
16174;DHT22;14031;50.158;8.626;2023-02-04T15:35:57;11.10;99.90
16174;DHT22;14031;50.158;8.626;2023-02-04T15:38:25;11.10;99.90
16174;DHT22;14031;50.158;8.626;2023-02-04T15:40:52;11.00;99.90
16174;DHT22;14031;50.158;8.626;2023-02-04T15:43:19;10.90;99.90